Terminal Aerodrome Forecast
Issued by NWS Charleston, SC

Home | Current Version | Previous Version | Text Only | Print | Product List | Glossary On
Versions: 1 2 3 4 5 6 7 8 9 10 11 12 13 14 15
000
FTUS42 KCHS 201725
TAFSAV
TAF
KSAV 201725Z 2018/2118 09008KT P6SM SCT200
     FM210300 VRB04KT P6SM SCT035 OVC200
     FM211200 12007KT P6SM VCSH SCT020 BKN035=

USA.gov is the U.S. government's official web portal to all federal, state and local government web resources and services.